Time;durP1;ratioP1;P1;durP2;ratioP2;P2;SDS_P1;SDS_P2;PMS_P1;PMS_P2;Temp;Humidity;BMP_temperature;BMP_pressure;BME280_temperature;BME280_humidity;BME280_pressure;Samples;Min_cycle;Max_cycle;Signal;HPM_P1;HPM_P2
2024/03/06 00:00:33;;;;;;;9.35;5.93;;;;;;;;;;5068479;28;20056;-59
2024/03/06 00:03:03;;;;;;;9.43;5.60;;;;;;;;;;5070879;28;20059;-57
2024/03/06 00:05:31;;;;;;;8.52;5.70;;;;;;;;;;5071071;28;20048;-57
2024/03/06 00:08:00;;;;;;;11.23;5.60;;;;;;;;;;5063326;28;20052;-57
2024/03/06 00:10:30;;;;;;;7.65;5.53;;;;;;;;;;5066735;28;20056;-56
2024/03/06 00:12:58;;;;;;;7.78;5.35;;;;;;;;;;5066788;28;20044;-54
2024/03/06 00:15:27;;;;;;;8.82;5.50;;;;;;;;;;5060794;28;20040;-57
2024/03/06 00:17:55;;;;;;;8.00;5.45;;;;;;;;;;5070939;28;20326;-58
2024/03/06 00:20:24;;;;;;;7.75;5.15;;;;;;;;;;5069244;28;20048;-57
2024/03/06 00:22:52;;;;;;;7.75;5.43;;;;;;;;;;5069053;28;20149;-56
2024/03/06 00:25:21;;;;;;;8.73;5.25;;;;;;;;;;5070534;28;20157;-57
2024/03/06 00:27:50;;;;;;;9.23;5.75;;;;;;;;;;5070052;28;20489;-57
2024/03/06 00:30:19;;;;;;;9.10;5.60;;;;;;;;;;5068171;28;20055;-57
2024/03/06 00:32:47;;;;;;;8.73;5.47;;;;;;;;;;5070321;28;20114;-58
2024/03/06 00:35:16;;;;;;;8.82;5.82;;;;;;;;;;5060246;28;20052;-56
2024/03/06 00:37:44;;;;;;;9.05;5.70;;;;;;;;;;5071505;28;20045;-56
2024/03/06 00:40:13;;;;;;;10.60;5.85;;;;;;;;;;5067001;28;20099;-58
2024/03/06 00:42:42;;;;;;;8.70;5.65;;;;;;;;;;5069405;28;20052;-58
2024/03/06 00:45:12;;;;;;;8.63;5.70;;;;;;;;;;5063318;28;20048;-57
2024/03/06 00:47:40;;;;;;;8.45;5.68;;;;;;;;;;5077246;28;20109;-56
2024/03/06 00:50:09;;;;;;;9.75;5.57;;;;;;;;;;5070743;28;20059;-57
2024/03/06 00:52:38;;;;;;;9.05;6.03;;;;;;;;;;5075724;28;20480;-57
2024/03/06 00:55:07;;;;;;;7.70;5.35;;;;;;;;;;5071756;28;20044;-57
2024/03/06 00:57:35;;;;;;;10.40;5.78;;;;;;;;;;5079639;28;20396;-57
2024/03/06 01:00:10;;;;;;;9.30;6.18;;;;;;;;;;5074302;28;20186;-56
2024/03/06 01:02:40;;;;;;;9.85;5.65;;;;;;;;;;5063064;28;20052;-57
2024/03/06 01:05:09;;;;;;;11.40;6.60;;;;;;;;;;5062916;28;20183;-59
2024/03/06 01:07:39;;;;;;;8.68;5.90;;;;;;;;;;5065800;28;20120;-57
2024/03/06 01:10:09;;;;;;;8.05;5.45;;;;;;;;;;5069377;28;20077;-57
2024/03/06 01:12:37;;;;;;;8.35;5.47;;;;;;;;;;5067009;28;20118;-57
2024/03/06 01:15:07;;;;;;;9.82;5.75;;;;;;;;;;5074716;28;20040;-56
2024/03/06 01:17:36;;;;;;;10.27;6.10;;;;;;;;;;5062226;28;20493;-57
2024/03/06 01:20:07;;;;;;;10.65;6.75;;;;;;;;;;5076136;28;20066;-57
2024/03/06 01:22:36;;;;;;;8.52;5.22;;;;;;;;;;5069269;28;20041;-58
2024/03/06 01:25:04;;;;;;;10.52;6.43;;;;;;;;;;5074520;28;20130;-57
2024/03/06 01:27:33;;;;;;;9.43;6.22;;;;;;;;;;5070862;28;20118;-57
2024/03/06 01:30:01;;;;;;;11.23;6.57;;;;;;;;;;5078266;28;20451;-57
2024/03/06 01:32:30;;;;;;;9.13;5.95;;;;;;;;;;5066505;28;20078;-56
2024/03/06 01:34:58;;;;;;;9.65;5.93;;;;;;;;;;5070817;28;20447;-56
2024/03/06 01:37:28;;;;;;;9.02;5.88;;;;;;;;;;5074095;28;20048;-57
2024/03/06 01:39:56;;;;;;;10.40;6.35;;;;;;;;;;5076073;28;20053;-56
2024/03/06 01:42:24;;;;;;;9.43;6.35;;;;;;;;;;5070010;28;20543;-56
2024/03/06 01:44:53;;;;;;;9.65;6.32;;;;;;;;;;5065613;28;20084;-57
2024/03/06 01:47:21;;;;;;;11.10;6.47;;;;;;;;;;5066330;28;20041;-58
2024/03/06 01:49:50;;;;;;;12.15;6.53;;;;;;;;;;5076547;28;20409;-56
2024/03/06 01:52:19;;;;;;;11.00;6.38;;;;;;;;;;5062960;28;20047;-56
2024/03/06 01:54:49;;;;;;;11.05;6.60;;;;;;;;;;5072194;28;20059;-58
2024/03/06 01:57:19;;;;;;;10.45;6.10;;;;;;;;;;5071777;28;20479;-57
2024/03/06 01:59:47;;;;;;;11.68;6.50;;;;;;;;;;5067207;28;20448;-56
2024/03/06 02:02:16;;;;;;;12.75;6.90;;;;;;;;;;5065165;28;20045;-56
2024/03/06 02:04:44;;;;;;;13.63;7.03;;;;;;;;;;5062680;28;20493;-56
2024/03/06 02:07:14;;;;;;;11.20;6.53;;;;;;;;;;5064050;28;20044;-58
2024/03/06 02:09:43;;;;;;;11.38;6.80;;;;;;;;;;5071199;28;20118;-57
2024/03/06 02:12:14;;;;;;;10.98;6.85;;;;;;;;;;5076490;28;20071;-57
2024/03/06 02:14:42;;;;;;;12.23;6.85;;;;;;;;;;5064313;28;20056;-56
2024/03/06 02:17:11;;;;;;;9.93;6.25;;;;;;;;;;5062062;28;20079;-57
2024/03/06 02:19:40;;;;;;;12.07;6.75;;;;;;;;;;5062297;28;20080;-57
2024/03/06 02:22:11;;;;;;;12.77;6.63;;;;;;;;;;5069697;28;20445;-57
2024/03/06 02:24:40;;;;;;;13.88;6.68;;;;;;;;;;5070317;28;20575;-58
2024/03/06 02:27:08;;;;;;;11.70;6.72;;;;;;;;;;5073372;28;20452;-55
2024/03/06 02:29:38;;;;;;;10.18;6.22;;;;;;;;;;5072239;28;20450;-56
2024/03/06 02:32:06;;;;;;;12.27;6.82;;;;;;;;;;5064369;28;20123;-57
2024/03/06 02:34:35;;;;;;;10.80;6.43;;;;;;;;;;5075417;28;20097;-57
2024/03/06 02:37:03;;;;;;;13.32;7.13;;;;;;;;;;5071231;28;20129;-57
2024/03/06 02:39:33;;;;;;;11.60;6.45;;;;;;;;;;5072151;28;20090;-56
2024/03/06 02:42:02;;;;;;;10.55;6.00;;;;;;;;;;5069121;28;20053;-58
2024/03/06 02:44:31;;;;;;;10.55;6.25;;;;;;;;;;5068526;28;20056;-58
2024/03/06 02:46:59;;;;;;;10.20;5.95;;;;;;;;;;5066366;28;20443;-56
2024/03/06 02:49:28;;;;;;;10.98;6.13;;;;;;;;;;5077809;28;20093;-58
2024/03/06 02:51:57;;;;;;;11.20;6.35;;;;;;;;;;5067282;28;20049;-57
2024/03/06 02:54:26;;;;;;;9.75;5.80;;;;;;;;;;5069329;28;20040;-57
2024/03/06 02:56:55;;;;;;;12.32;5.95;;;;;;;;;;5067928;28;20457;-57
2024/03/06 02:59:24;;;;;;;9.75;5.55;;;;;;;;;;5065418;28;20052;-58
2024/03/06 03:01:52;;;;;;;11.80;5.68;;;;;;;;;;5067260;28;20632;-57
2024/03/06 03:04:21;;;;;;;10.35;5.53;;;;;;;;;;5070841;28;20068;-56
2024/03/06 03:06:49;;;;;;;11.68;5.40;;;;;;;;;;5073446;28;20048;-57
2024/03/06 03:09:17;;;;;;;11.30;6.00;;;;;;;;;;5073479;28;20102;-56
2024/03/06 03:11:46;;;;;;;9.38;5.82;;;;;;;;;;5067522;28;20176;-56
2024/03/06 03:14:16;;;;;;;10.52;6.10;;;;;;;;;;5066555;28;20041;-57
2024/03/06 03:16:44;;;;;;;14.23;6.38;;;;;;;;;;5079337;28;20058;-57
2024/03/06 03:19:12;;;;;;;10.90;6.25;;;;;;;;;;5076279;28;20048;-56
2024/03/06 03:21:44;;;;;;;10.93;5.60;;;;;;;;;;5071017;28;20052;-57
2024/03/06 03:24:12;;;;;;;10.52;6.07;;;;;;;;;;5077218;28;20072;-58
2024/03/06 03:26:41;;;;;;;11.25;5.82;;;;;;;;;;5073838;28;20045;-57
2024/03/06 03:29:10;;;;;;;12.13;6.00;;;;;;;;;;5076303;28;20131;-56
2024/03/06 03:31:40;;;;;;;11.30;6.13;;;;;;;;;;5069252;28;20480;-56
2024/03/06 03:34:09;;;;;;;9.73;5.15;;;;;;;;;;5077500;28;20115;-58
2024/03/06 03:36:41;;;;;;;10.32;5.80;;;;;;;;;;5076158;28;20079;-57
2024/03/06 03:39:15;;;;;;;11.38;5.95;;;;;;;;;;5076410;28;20448;-56
2024/03/06 03:41:46;;;;;;;11.63;6.10;;;;;;;;;;5076415;28;20048;-57
2024/03/06 03:44:15;;;;;;;9.40;5.50;;;;;;;;;;5072146;28;20291;-56
2024/03/06 03:46:45;;;;;;;14.13;6.53;;;;;;;;;;5065282;28;20052;-58
2024/03/06 03:49:13;;;;;;;12.23;5.95;;;;;;;;;;5079738;28;20040;-58
2024/03/06 03:51:42;;;;;;;11.93;6.57;;;;;;;;;;5071535;28;20052;-58
2024/03/06 03:54:10;;;;;;;11.98;5.72;;;;;;;;;;5078909;28;20040;-56
2024/03/06 03:56:39;;;;;;;10.48;6.20;;;;;;;;;;5071603;28;20561;-56
2024/03/06 03:59:07;;;;;;;10.85;5.82;;;;;;;;;;5075500;28;20412;-58
2024/03/06 04:01:36;;;;;;;10.48;5.50;;;;;;;;;;5064493;28;20086;-59
2024/03/06 04:04:06;;;;;;;11.88;5.70;;;;;;;;;;5075665;28;20127;-57
2024/03/06 04:06:35;;;;;;;8.82;4.75;;;;;;;;;;5069149;28;20505;-57
2024/03/06 04:09:04;;;;;;;8.80;4.55;;;;;;;;;;5076019;28;20126;-57
2024/03/06 04:11:34;;;;;;;9.73;5.05;;;;;;;;;;5076216;28;20078;-58
2024/03/06 04:14:06;;;;;;;6.82;4.25;;;;;;;;;;5069919;28;20136;-60
2024/03/06 04:16:35;;;;;;;9.10;5.40;;;;;;;;;;5070138;28;20045;-62
2024/03/06 04:19:03;;;;;;;9.13;4.97;;;;;;;;;;5067213;28;20150;-56
2024/03/06 04:21:33;;;;;;;9.32;5.28;;;;;;;;;;5071866;28;20116;-56
2024/03/06 04:24:01;;;;;;;9.05;4.70;;;;;;;;;;5073278;28;20060;-57
2024/03/06 04:26:30;;;;;;;8.40;4.80;;;;;;;;;;5067993;28;20048;-56
2024/03/06 04:28:58;;;;;;;10.35;5.35;;;;;;;;;;5069573;28;20094;-57
2024/03/06 04:31:26;;;;;;;9.90;4.97;;;;;;;;;;5076884;28;20512;-56
2024/03/06 04:33:55;;;;;;;10.13;4.88;;;;;;;;;;5071932;28;20102;-55
2024/03/06 04:36:23;;;;;;;11.52;5.65;;;;;;;;;;5076209;28;20109;-57
2024/03/06 04:38:53;;;;;;;10.50;5.57;;;;;;;;;;5064630;28;20040;-56
2024/03/06 04:41:21;;;;;;;12.13;5.75;;;;;;;;;;5076651;28;20071;-56
2024/03/06 04:43:50;;;;;;;10.05;5.65;;;;;;;;;;5073449;28;20067;-60
2024/03/06 04:46:19;;;;;;;11.70;5.90;;;;;;;;;;5063843;28;20048;-55
2024/03/06 04:48:48;;;;;;;11.45;5.85;;;;;;;;;;5070381;28;20049;-56
2024/03/06 04:51:19;;;;;;;8.82;4.88;;;;;;;;;;5077605;28;20088;-57
2024/03/06 04:53:48;;;;;;;10.88;5.70;;;;;;;;;;5071014;28;20140;-56
2024/03/06 04:56:18;;;;;;;11.55;5.72;;;;;;;;;;5072784;28;20044;-57
2024/03/06 04:58:47;;;;;;;12.18;6.28;;;;;;;;;;5074934;28;20067;-56
2024/03/06 05:01:16;;;;;;;11.15;5.70;;;;;;;;;;5066901;28;20044;-58
2024/03/06 05:03:44;;;;;;;13.82;5.95;;;;;;;;;;5071717;28;20489;-57
2024/03/06 05:06:30;;;;;;;11.50;6.18;;;;;;;;;;5069946;28;20512;-55
2024/03/06 05:09:15;;;;;;;11.20;6.32;;;;;;;;;;5070571;28;20087;-56
2024/03/06 05:12:03;;;;;;;10.73;5.35;;;;;;;;;;5069092;28;20059;-57
2024/03/06 05:14:49;;;;;;;10.25;5.55;;;;;;;;;;5075403;28;20075;-57
2024/03/06 05:17:35;;;;;;;10.80;5.72;;;;;;;;;;5075580;28;20512;-55
2024/03/06 05:20:21;;;;;;;12.02;5.93;;;;;;;;;;5065593;28;20107;-56
2024/03/06 05:23:07;;;;;;;13.60;6.28;;;;;;;;;;5071610;28;20054;-55
2024/03/06 05:25:53;;;;;;;12.75;6.22;;;;;;;;;;5070484;28;20067;-56
2024/03/06 05:28:40;;;;;;;10.90;5.68;;;;;;;;;;5070864;28;20110;-56
2024/03/06 05:31:26;;;;;;;11.23;6.07;;;;;;;;;;5071918;28;20047;-56
2024/03/06 05:34:12;;;;;;;10.50;5.60;;;;;;;;;;5068950;28;20056;-57
2024/03/06 05:36:57;;;;;;;10.82;5.95;;;;;;;;;;5075918;28;20511;-58
2024/03/06 05:39:44;;;;;;;10.55;5.90;;;;;;;;;;5074942;28;20110;-55
2024/03/06 05:42:30;;;;;;;11.82;6.05;;;;;;;;;;5073643;28;20051;-57
2024/03/06 05:45:17;;;;;;;11.05;5.28;;;;;;;;;;5062539;28;20534;-55
2024/03/06 05:48:04;;;;;;;9.32;4.57;;;;;;;;;;5073719;28;20536;-56
2024/03/06 05:50:49;;;;;;;9.20;4.93;;;;;;;;;;5082652;28;20055;-58
2024/03/06 05:53:38;;;;;;;9.07;4.05;;;;;;;;;;5063044;28;20141;-60
2024/03/06 05:56:23;;;;;;;5.97;3.70;;;;;;;;;;5065943;28;20497;-56
2024/03/06 05:59:09;;;;;;;5.97;2.40;;;;;;;;;;5070817;28;20056;-55
2024/03/06 06:01:39;;;;;;;3.83;2.67;;;;;;;;;;5066583;28;20131;-57
2024/03/06 06:04:08;;;;;;;3.88;2.33;;;;;;;;;;5068205;28;20092;-56
2024/03/06 06:06:37;;;;;;;3.20;2.10;;;;;;;;;;5073616;28;20113;-56
2024/03/06 06:09:06;;;;;;;3.17;1.88;;;;;;;;;;5073812;28;20554;-56
2024/03/06 06:11:34;;;;;;;2.33;1.65;;;;;;;;;;5067791;28;20059;-57
2024/03/06 06:14:03;;;;;;;2.53;2.03;;;;;;;;;;5066385;28;20123;-57
2024/03/06 06:16:36;;;;;;;2.05;1.80;;;;;;;;;;5065965;28;20045;-56
2024/03/06 06:19:06;;;;;;;3.92;1.95;;;;;;;;;;5074473;28;20558;-57
2024/03/06 06:21:35;;;;;;;5.78;2.03;;;;;;;;;;5062310;28;20056;-56
2024/03/06 06:24:04;;;;;;;2.50;1.63;;;;;;;;;;5070881;28;20053;-56
2024/03/06 06:26:33;;;;;;;2.30;1.60;;;;;;;;;;5060374;28;20102;-56
2024/03/06 06:29:02;;;;;;;2.60;1.65;;;;;;;;;;5062823;28;20055;-58
2024/03/06 06:31:31;;;;;;;1.95;1.50;;;;;;;;;;5070236;28;20044;-56
2024/03/06 06:33:59;;;;;;;2.05;1.58;;;;;;;;;;5069101;28;20040;-59
2024/03/06 06:36:29;;;;;;;2.08;1.88;;;;;;;;;;5064872;28;20051;-60
2024/03/06 06:38:57;;;;;;;3.33;1.45;;;;;;;;;;5063463;28;20463;-60
2024/03/06 06:41:28;;;;;;;4.07;1.60;;;;;;;;;;5066662;28;20425;-61
2024/03/06 06:43:57;;;;;;;2.70;1.55;;;;;;;;;;5051772;28;20513;-57
2024/03/06 06:46:25;;;;;;;3.85;1.70;;;;;;;;;;5064945;28;20048;-59
2024/03/06 06:48:54;;;;;;;2.38;1.52;;;;;;;;;;5063978;28;20049;-60
2024/03/06 06:51:23;;;;;;;3.72;1.90;;;;;;;;;;5056639;28;20424;-60
2024/03/06 06:53:54;;;;;;;2.42;1.75;;;;;;;;;;5072016;28;20049;-61
2024/03/06 06:56:25;;;;;;;2.28;1.40;;;;;;;;;;5070817;28;20105;-60
2024/03/06 06:58:53;;;;;;;3.67;1.75;;;;;;;;;;5068857;28;20102;-60
2024/03/06 07:01:22;;;;;;;2.47;1.67;;;;;;;;;;5062722;28;20509;-59
2024/03/06 07:03:50;;;;;;;2.17;1.75;;;;;;;;;;5072169;28;20075;-60
2024/03/06 07:06:19;;;;;;;2.78;1.88;;;;;;;;;;5071396;28;20071;-60
2024/03/06 07:08:47;;;;;;;2.42;1.90;;;;;;;;;;5071607;28;20044;-59
2024/03/06 07:11:18;;;;;;;1.85;1.60;;;;;;;;;;5071384;28;20097;-61
2024/03/06 07:13:47;;;;;;;2.45;1.95;;;;;;;;;;5070272;28;20047;-60
2024/03/06 07:16:15;;;;;;;2.90;1.60;;;;;;;;;;5069162;28;20063;-59
2024/03/06 07:18:44;;;;;;;2.85;1.90;;;;;;;;;;5071404;28;20174;-60
2024/03/06 07:21:12;;;;;;;3.63;1.80;;;;;;;;;;5070076;28;20098;-59
2024/03/06 07:23:40;;;;;;;2.63;1.48;;;;;;;;;;5070576;28;20524;-59
2024/03/06 07:26:09;;;;;;;3.97;1.60;;;;;;;;;;5071509;28;20083;-59
2024/03/06 07:28:39;;;;;;;3.53;1.85;;;;;;;;;;5070663;28;20052;-59
2024/03/06 07:31:07;;;;;;;3.15;1.90;;;;;;;;;;5062675;28;20117;-61
2024/03/06 07:33:37;;;;;;;2.65;1.77;;;;;;;;;;5071547;28;20101;-62
2024/03/06 07:36:06;;;;;;;3.90;1.90;;;;;;;;;;5070710;28;20044;-61
2024/03/06 07:38:35;;;;;;;1.77;1.58;;;;;;;;;;5070674;28;20052;-61
2024/03/06 07:41:03;;;;;;;1.65;1.38;;;;;;;;;;5068166;28;20047;-62
2024/03/06 07:43:32;;;;;;;2.35;1.67;;;;;;;;;;5063714;28;20051;-63
2024/03/06 07:46:02;;;;;;;1.58;1.35;;;;;;;;;;5071118;28;20137;-61
2024/03/06 07:48:30;;;;;;;2.38;1.75;;;;;;;;;;5070842;28;20482;-61
2024/03/06 07:50:58;;;;;;;2.58;1.65;;;;;;;;;;5071507;28;20496;-61
2024/03/06 07:53:27;;;;;;;3.67;2.17;;;;;;;;;;5066855;28;20344;-60
2024/03/06 07:55:55;;;;;;;3.65;1.70;;;;;;;;;;5068565;28;20068;-63
2024/03/06 07:58:24;;;;;;;2.70;1.90;;;;;;;;;;5067661;28;20059;-61
2024/03/06 08:00:55;;;;;;;3.22;1.83;;;;;;;;;;5069742;28;20040;-61
2024/03/06 08:03:25;;;;;;;3.03;1.90;;;;;;;;;;5070601;28;20084;-61
2024/03/06 08:05:54;;;;;;;2.63;1.90;;;;;;;;;;5067888;28;20122;-62
2024/03/06 08:08:24;;;;;;;3.33;2.10;;;;;;;;;;5070397;28;20060;-61
2024/03/06 08:10:52;;;;;;;3.13;2.20;;;;;;;;;;5070899;28;20392;-61
2024/03/06 08:13:20;;;;;;;3.78;2.08;;;;;;;;;;5067608;28;20044;-61
2024/03/06 08:15:49;;;;;;;2.85;2.13;;;;;;;;;;5065437;28;20102;-61
2024/03/06 08:18:17;;;;;;;2.75;2.10;;;;;;;;;;5070530;28;20101;-61
2024/03/06 08:20:47;;;;;;;3.13;2.17;;;;;;;;;;5066677;28;20144;-63
2024/03/06 08:23:16;;;;;;;2.58;1.70;;;;;;;;;;5068503;28;20482;-61
2024/03/06 08:25:45;;;;;;;2.35;1.85;;;;;;;;;;5070351;28;20505;-62
2024/03/06 08:28:13;;;;;;;5.82;2.30;;;;;;;;;;5069092;28;20493;-62
2024/03/06 08:30:41;;;;;;;5.80;2.60;;;;;;;;;;5065612;28;20098;-64
2024/03/06 08:33:10;;;;;;;3.35;2.30;;;;;;;;;;5069916;28;20097;-63
2024/03/06 08:35:39;;;;;;;4.50;2.40;;;;;;;;;;5069806;28;20057;-61
2024/03/06 08:38:09;;;;;;;4.28;2.35;;;;;;;;;;5070438;28;20041;-62
2024/03/06 08:40:38;;;;;;;3.75;2.53;;;;;;;;;;5067172;28;20059;-63
2024/03/06 08:43:08;;;;;;;5.20;3.03;;;;;;;;;;5069080;28;20417;-62
2024/03/06 08:45:37;;;;;;;6.22;2.95;;;;;;;;;;5065078;28;20055;-62
2024/03/06 08:48:06;;;;;;;5.10;3.10;;;;;;;;;;5075431;28;20431;-61
2024/03/06 08:50:34;;;;;;;5.18;3.28;;;;;;;;;;5072259;28;20521;-62
2024/03/06 08:53:03;;;;;;;5.40;2.40;;;;;;;;;;5071837;28;20493;-62
2024/03/06 08:55:33;;;;;;;3.22;2.50;;;;;;;;;;5070072;28;20056;-63
2024/03/06 08:58:01;;;;;;;5.85;3.47;;;;;;;;;;5070751;28;20478;-62
2024/03/06 09:00:30;;;;;;;3.95;2.55;;;;;;;;;;5066766;28;20053;-61
2024/03/06 09:02:59;;;;;;;3.33;2.42;;;;;;;;;;5067199;28;20045;-61
2024/03/06 09:05:27;;;;;;;4.72;2.88;;;;;;;;;;5069028;28;20440;-61
2024/03/06 09:07:57;;;;;;;5.82;3.10;;;;;;;;;;5066641;28;20054;-63
2024/03/06 09:10:29;;;;;;;4.70;2.83;;;;;;;;;;5063730;28;20048;-62
2024/03/06 09:12:59;;;;;;;5.28;2.90;;;;;;;;;;5067968;28;20063;-61
2024/03/06 09:15:28;;;;;;;4.50;3.28;;;;;;;;;;5067291;28;20044;-63
2024/03/06 09:17:57;;;;;;;8.32;3.58;;;;;;;;;;5057717;28;20109;-62
2024/03/06 09:20:26;;;;;;;6.38;4.20;;;;;;;;;;5063444;28;20044;-62
2024/03/06 09:22:56;;;;;;;9.13;4.15;;;;;;;;;;5065098;28;20044;-62
2024/03/06 09:25:25;;;;;;;7.32;3.88;;;;;;;;;;5062527;28;20044;-61
2024/03/06 09:27:59;;;;;;;8.35;4.78;;;;;;;;;;5052821;28;20126;-61
2024/03/06 09:30:29;;;;;;;7.47;4.20;;;;;;;;;;5064138;28;20103;-62
2024/03/06 09:32:58;;;;;;;9.27;4.82;;;;;;;;;;5066423;28;20128;-62
2024/03/06 09:35:27;;;;;;;7.22;3.83;;;;;;;;;;5066721;28;20060;-63
2024/03/06 09:37:57;;;;;;;7.05;4.18;;;;;;;;;;5058470;28;20399;-62
2024/03/06 09:40:26;;;;;;;8.45;4.30;;;;;;;;;;5067633;28;20047;-61
2024/03/06 09:42:55;;;;;;;6.50;3.90;;;;;;;;;;5061671;28;20045;-62
2024/03/06 09:45:23;;;;;;;5.80;3.72;;;;;;;;;;5060851;28;20082;-64
2024/03/06 09:47:53;;;;;;;6.95;4.15;;;;;;;;;;5069304;28;20059;-62
2024/03/06 09:50:26;;;;;;;6.88;3.97;;;;;;;;;;5065464;28;20549;-61
2024/03/06 09:52:56;;;;;;;6.80;3.92;;;;;;;;;;5066204;28;20093;-63
2024/03/06 09:55:26;;;;;;;6.30;3.55;;;;;;;;;;5058758;28;20040;-62
2024/03/06 09:57:54;;;;;;;8.43;3.90;;;;;;;;;;5064656;28;20359;-62
2024/03/06 10:00:24;;;;;;;6.88;3.72;;;;;;;;;;5063137;28;20407;-63
2024/03/06 10:02:56;;;;;;;8.18;4.28;;;;;;;;;;5068987;28;20072;-62
2024/03/06 10:05:25;;;;;;;6.55;3.92;;;;;;;;;;5068406;28;20056;-61
2024/03/06 10:07:54;;;;;;;6.50;3.80;;;;;;;;;;5069269;28;20055;-63
2024/03/06 10:10:23;;;;;;;8.02;4.47;;;;;;;;;;5067423;28;20555;-63
2024/03/06 10:12:52;;;;;;;10.30;4.70;;;;;;;;;;5066989;28;20055;-63
2024/03/06 10:15:21;;;;;;;11.38;4.80;;;;;;;;;;5066374;28;20052;-61
2024/03/06 10:17:50;;;;;;;8.18;4.22;;;;;;;;;;5069115;28;20044;-59
2024/03/06 10:20:23;;;;;;;7.18;4.22;;;;;;;;;;5071209;28;20492;-59
2024/03/06 10:22:53;;;;;;;7.53;4.43;;;;;;;;;;5070352;28;20048;-59
2024/03/06 10:25:27;;;;;;;9.07;4.25;;;;;;;;;;5079451;28;20052;-60
2024/03/06 10:28:05;;;;;;;9.23;4.68;;;;;;;;;;5076327;28;20481;-59
2024/03/06 10:30:35;;;;;;;10.40;4.63;;;;;;;;;;5050098;28;20056;-60
2024/03/06 10:33:05;;;;;;;7.88;4.28;;;;;;;;;;5047997;28;20480;-61
2024/03/06 10:35:36;;;;;;;8.82;4.85;;;;;;;;;;5051626;28;20048;-60
2024/03/06 10:38:05;;;;;;;8.45;4.00;;;;;;;;;;5048574;28;20048;-61
2024/03/06 10:40:34;;;;;;;5.57;3.35;;;;;;;;;;5041564;28;20090;-60
2024/03/06 10:43:03;;;;;;;5.90;2.92;;;;;;;;;;5045190;28;20150;-60
2024/03/06 10:45:36;;;;;;;5.32;3.22;;;;;;;;;;5048153;28;20053;-61
2024/03/06 10:48:05;;;;;;;5.68;3.42;;;;;;;;;;5048174;28;20049;-61
2024/03/06 10:50:36;;;;;;;5.55;3.15;;;;;;;;;;5063700;28;20055;-59
2024/03/06 10:53:11;;;;;;;6.00;2.72;;;;;;;;;;5068836;28;20041;-59
2024/03/06 10:55:39;;;;;;;7.10;2.92;;;;;;;;;;5071747;28;20428;-61
2024/03/06 10:58:09;;;;;;;4.22;2.70;;;;;;;;;;5061115;28;20099;-60
2024/03/06 11:00:39;;;;;;;5.15;3.20;;;;;;;;;;5068070;28;20597;-59
2024/03/06 11:03:08;;;;;;;3.70;2.38;;;;;;;;;;5068163;28;20133;-59
2024/03/06 11:05:39;;;;;;;3.75;2.35;;;;;;;;;;5059910;28;20084;-59
2024/03/06 11:08:09;;;;;;;4.07;2.75;;;;;;;;;;5067369;28;20067;-60
2024/03/06 11:10:38;;;;;;;4.90;3.15;;;;;;;;;;5067234;28;20044;-61
2024/03/06 11:13:10;;;;;;;4.45;2.90;;;;;;;;;;5062410;28;20091;-60
2024/03/06 11:15:39;;;;;;;3.90;2.42;;;;;;;;;;5061839;28;20045;-59
2024/03/06 11:18:28;;;;;;;3.92;2.67;;;;;;;;;;5054194;28;20391;-60
2024/03/06 11:21:21;;;;;;;4.22;2.67;;;;;;;;;;5029821;28;20055;-61
2024/03/06 11:24:05;;;;;;;3.95;2.70;;;;;;;;;;5042082;28;20060;-59
2024/03/06 11:26:37;;;;;;;6.82;2.67;;;;;;;;;;5042792;28;20388;-62
2024/03/06 11:29:08;;;;;;;3.85;2.25;;;;;;;;;;5034289;28;20099;-63
2024/03/06 11:31:37;;;;;;;2.90;2.20;;;;;;;;;;5051863;28;20087;-63
2024/03/06 11:34:06;;;;;;;4.78;2.92;;;;;;;;;;5055957;28;20037;-61
2024/03/06 11:36:37;;;;;;;4.38;3.15;;;;;;;;;;5054285;28;20497;-61
2024/03/06 11:39:06;;;;;;;4.90;3.20;;;;;;;;;;5060750;28;20048;-61
2024/03/06 11:41:48;;;;;;;3.65;2.60;;;;;;;;;;5070085;28;20052;-61
2024/03/06 11:44:18;;;;;;;8.27;3.47;;;;;;;;;;5071953;28;20048;-59
2024/03/06 11:46:48;;;;;;;5.20;3.22;;;;;;;;;;5072029;28;20048;-60
2024/03/06 11:49:18;;;;;;;5.55;3.25;;;;;;;;;;5059669;28;20091;-60
2024/03/06 11:51:48;;;;;;;4.25;2.92;;;;;;;;;;5050254;28;20052;-61
2024/03/06 11:54:17;;;;;;;5.35;3.33;;;;;;;;;;5048610;28;20049;-60
2024/03/06 11:56:47;;;;;;;5.25;3.22;;;;;;;;;;5045665;28;20037;-60
2024/03/06 11:59:15;;;;;;;4.25;3.08;;;;;;;;;;5059600;28;20062;-60
2024/03/06 12:01:44;;;;;;;6.15;3.17;;;;;;;;;;5071565;28;20052;-61
2024/03/06 12:04:12;;;;;;;4.22;3.17;;;;;;;;;;5066671;28;20557;-62
2024/03/06 12:06:41;;;;;;;8.70;3.78;;;;;;;;;;5071407;28;20060;-62
2024/03/06 12:09:11;;;;;;;7.60;3.70;;;;;;;;;;5069245;28;20102;-60
2024/03/06 12:11:40;;;;;;;6.07;3.50;;;;;;;;;;5061811;28;20477;-61
2024/03/06 12:14:10;;;;;;;7.13;4.07;;;;;;;;;;5059489;28;20049;-61
2024/03/06 12:16:38;;;;;;;7.18;4.10;;;;;;;;;;5061328;28;20072;-60
2024/03/06 12:19:07;;;;;;;7.18;3.83;;;;;;;;;;5064169;28;20107;-60
2024/03/06 12:21:37;;;;;;;6.15;4.13;;;;;;;;;;5067208;28;20314;-60
2024/03/06 12:24:06;;;;;;;7.15;4.03;;;;;;;;;;5066427;28;20415;-60
2024/03/06 12:26:36;;;;;;;8.45;4.18;;;;;;;;;;5064253;28;20056;-62
2024/03/06 12:29:06;;;;;;;7.45;4.35;;;;;;;;;;5068994;28;20060;-61
2024/03/06 12:31:35;;;;;;;6.60;3.88;;;;;;;;;;5070416;28;20044;-60
2024/03/06 12:34:04;;;;;;;7.22;4.53;;;;;;;;;;5069160;28;20720;-59
2024/03/06 12:36:34;;;;;;;7.22;4.28;;;;;;;;;;5069881;28;20055;-62
2024/03/06 12:39:03;;;;;;;7.00;4.18;;;;;;;;;;5063501;28;20656;-61
2024/03/06 12:41:32;;;;;;;10.57;4.68;;;;;;;;;;5062674;28;20049;-60
2024/03/06 12:44:03;;;;;;;10.75;4.95;;;;;;;;;;5067422;28;20564;-60
2024/03/06 12:46:31;;;;;;;10.43;4.93;;;;;;;;;;5069480;28;20051;-60
2024/03/06 12:49:00;;;;;;;9.82;4.72;;;;;;;;;;5064851;28;20516;-61
2024/03/06 12:51:28;;;;;;;6.80;3.90;;;;;;;;;;5061308;28;20048;-63
2024/03/06 12:53:56;;;;;;;7.07;4.30;;;;;;;;;;5064810;28;20106;-60
2024/03/06 12:56:26;;;;;;;5.93;3.78;;;;;;;;;;5063170;28;20067;-60
2024/03/06 12:58:54;;;;;;;6.10;3.67;;;;;;;;;;5066510;28;20113;-61
2024/03/06 13:01:24;;;;;;;5.63;3.45;;;;;;;;;;5069802;28;20040;-62
2024/03/06 13:03:52;;;;;;;7.35;3.78;;;;;;;;;;5066589;28;20533;-64
2024/03/06 13:06:21;;;;;;;6.53;3.67;;;;;;;;;;5068154;28;20048;-64
2024/03/06 13:08:49;;;;;;;6.47;3.53;;;;;;;;;;5067620;28;20531;-62
2024/03/06 13:11:19;;;;;;;6.30;3.88;;;;;;;;;;5067043;28;20049;-61
2024/03/06 13:13:47;;;;;;;6.32;3.40;;;;;;;;;;5062336;28;20079;-62
2024/03/06 13:16:16;;;;;;;6.43;3.40;;;;;;;;;;5071862;28;20044;-64
2024/03/06 13:18:46;;;;;;;6.28;3.85;;;;;;;;;;5063890;28;20056;-65
2024/03/06 13:21:15;;;;;;;6.28;3.50;;;;;;;;;;5072150;28;20084;-62
2024/03/06 13:23:43;;;;;;;7.15;4.20;;;;;;;;;;5075397;28;20056;-63
2024/03/06 13:26:12;;;;;;;10.23;4.70;;;;;;;;;;5078947;28;20142;-62
2024/03/06 13:28:41;;;;;;;9.57;4.43;;;;;;;;;;5077666;28;20138;-64
2024/03/06 13:31:09;;;;;;;6.88;4.10;;;;;;;;;;5070988;28;20136;-64
2024/03/06 13:33:38;;;;;;;7.97;4.65;;;;;;;;;;5073405;28;20056;-62
2024/03/06 13:36:08;;;;;;;7.60;4.43;;;;;;;;;;5070991;28;20459;-61
2024/03/06 13:38:36;;;;;;;7.43;4.15;;;;;;;;;;5071617;28;20071;-63
2024/03/06 13:41:05;;;;;;;6.90;3.83;;;;;;;;;;5060217;28;20040;-64
2024/03/06 13:43:33;;;;;;;8.25;3.97;;;;;;;;;;5063993;28;20068;-65
2024/03/06 13:46:02;;;;;;;6.88;3.67;;;;;;;;;;5071454;28;20053;-63
2024/03/06 13:48:30;;;;;;;4.53;3.17;;;;;;;;;;5075054;28;20395;-64
2024/03/06 13:50:58;;;;;;;4.57;3.03;;;;;;;;;;5070503;28;20059;-63
2024/03/06 13:53:28;;;;;;;6.50;3.58;;;;;;;;;;5066324;28;20049;-63
2024/03/06 13:55:57;;;;;;;5.70;3.47;;;;;;;;;;5069956;28;20054;-63
2024/03/06 13:58:26;;;;;;;5.80;3.55;;;;;;;;;;5059329;28;20395;-65
2024/03/06 14:00:54;;;;;;;5.78;3.25;;;;;;;;;;5078946;28;20390;-64
2024/03/06 14:03:24;;;;;;;4.82;3.30;;;;;;;;;;5058752;28;20372;-63
2024/03/06 14:05:52;;;;;;;4.07;3.05;;;;;;;;;;5072163;28;20564;-63
2024/03/06 14:08:22;;;;;;;5.82;3.33;;;;;;;;;;5068045;28;20052;-66
2024/03/06 14:10:52;;;;;;;5.35;2.90;;;;;;;;;;5064501;28;20102;-65
2024/03/06 14:13:20;;;;;;;3.75;2.70;;;;;;;;;;5070818;28;20557;-67
2024/03/06 14:15:49;;;;;;;5.50;2.95;;;;;;;;;;5074189;28;20040;-63
2024/03/06 14:18:17;;;;;;;6.15;3.58;;;;;;;;;;5071951;28;20040;-63
2024/03/06 14:20:46;;;;;;;3.50;2.58;;;;;;;;;;5071614;28;20559;-65
2024/03/06 14:23:14;;;;;;;6.22;3.55;;;;;;;;;;5069786;28;20050;-66
2024/03/06 14:25:44;;;;;;;6.10;3.55;;;;;;;;;;5061463;28;20524;-63
2024/03/06 14:28:14;;;;;;;6.25;2.67;;;;;;;;;;5082909;28;20417;-65
2024/03/06 14:30:43;;;;;;;6.35;3.25;;;;;;;;;;5067398;28;20395;-65
2024/03/06 14:33:12;;;;;;;4.85;2.65;;;;;;;;;;5066109;28;20162;-64
2024/03/06 14:35:41;;;;;;;5.65;3.17;;;;;;;;;;5080921;28;20567;-63
2024/03/06 14:38:09;;;;;;;6.32;3.45;;;;;;;;;;5081732;28;20071;-63
2024/03/06 14:40:37;;;;;;;5.30;3.13;;;;;;;;;;5068200;28;20051;-63
2024/03/06 14:43:09;;;;;;;6.72;2.95;;;;;;;;;;5075820;28;20040;-66
2024/03/06 14:45:42;;;;;;;4.30;2.67;;;;;;;;;;5071613;28;20040;-65
2024/03/06 14:48:11;;;;;;;4.55;2.97;;;;;;;;;;5076318;28;20064;-64
2024/03/06 14:50:39;;;;;;;4.60;3.10;;;;;;;;;;5075739;28;20067;-65
2024/03/06 14:53:07;;;;;;;5.40;2.80;;;;;;;;;;5070716;28;20071;-63
2024/03/06 14:55:36;;;;;;;5.20;3.13;;;;;;;;;;5064821;28;20053;-66
2024/03/06 14:58:05;;;;;;;4.85;2.95;;;;;;;;;;5065996;28;20045;-64